Time;durP1;ratioP1;P1;durP2;ratioP2;P2;SDS_P1;SDS_P2;PMS_P1;PMS_P2;Temp;Humidity;BMP_temperature;BMP_pressure;BME280_temperature;BME280_humidity;BME280_pressure;Samples;Min_cycle;Max_cycle;Signal;HPM_P1;HPM_P2
2022/11/23 00:01:32;;;;;;;12.40;9.90;;;;;;;17.15;39.77;99657.95;107013;1284;74334;-88
2022/11/23 00:04:01;;;;;;;11.40;9.80;;;;;;;17.15;39.71;99666.14;106924;1287;82688;-93
2022/11/23 00:06:26;;;;;;;12.40;10.40;;;;;;;17.15;39.74;99671.68;106796;1283;72424;-90
2022/11/23 00:08:52;;;;;;;11.70;10.00;;;;;;;17.15;39.74;99676.21;106810;1284;67484;-90
2022/11/23 00:11:18;;;;;;;13.10;10.30;;;;;;;17.15;39.82;99670.11;106567;1280;355849;-90
2022/11/23 00:13:43;;;;;;;14.70;10.10;;;;;;;17.15;39.78;99662.11;106747;1285;66701;-90
2022/11/23 00:16:13;;;;;;;11.30;10.00;;;;;;;17.15;39.79;99658.46;106983;1285;66964;-91
2022/11/23 00:18:39;;;;;;;14.30;10.20;;;;;;;17.15;39.76;99658.86;106752;1288;66854;-90
2022/11/23 00:21:06;;;;;;;11.80;10.00;;;;;;;17.14;39.79;99655.77;106785;1289;66813;-90
2022/11/23 00:23:31;;;;;;;12.40;10.30;;;;;;;17.14;39.78;99643.71;106855;1281;66828;-90
2022/11/23 00:25:57;;;;;;;12.00;10.30;;;;;;;17.14;39.75;99643.66;106773;1283;67364;-90
2022/11/23 00:28:22;;;;;;;13.50;10.00;;;;;;;17.14;39.79;99634.63;106975;1287;67208;-90
2022/11/23 00:30:49;;;;;;;11.40;9.90;;;;;;;17.13;39.79;99626.02;106840;1283;67306;-90
2022/11/23 00:33:15;;;;;;;12.00;9.90;;;;;;;17.13;39.76;99629.22;106827;1287;75313;-89
2022/11/23 00:35:40;;;;;;;12.20;9.60;;;;;;;17.14;39.76;99628.98;106742;1283;68033;-89
2022/11/23 00:38:06;;;;;;;12.70;10.10;;;;;;;17.13;39.82;99625.73;106799;1281;67438;-89
2022/11/23 00:40:31;;;;;;;13.10;10.70;;;;;;;17.13;39.79;99612.40;106775;1287;67683;-88
2022/11/23 00:42:57;;;;;;;11.20;9.50;;;;;;;17.13;39.78;99608.23;106829;1283;67580;-89
2022/11/23 00:45:22;;;;;;;12.50;9.80;;;;;;;17.13;39.82;99611.33;106769;1283;81757;-88
2022/11/23 00:47:47;;;;;;;11.70;9.60;;;;;;;17.13;39.90;99611.99;106909;1281;66926;-88
2022/11/23 00:50:13;;;;;;;12.30;9.60;;;;;;;17.13;39.78;99605.84;106595;1282;67188;-87
2022/11/23 00:52:38;;;;;;;13.50;10.10;;;;;;;17.13;39.82;99601.46;106541;1284;67445;-88
2022/11/23 00:55:04;;;;;;;11.00;9.40;;;;;;;17.12;39.89;99594.30;106819;1288;66742;-88
2022/11/23 00:57:30;;;;;;;13.00;10.50;;;;;;;17.12;39.84;99596.54;106558;1286;67307;-88
2022/11/23 00:59:55;;;;;;;11.40;9.10;;;;;;;17.12;39.84;99596.23;106614;1289;67522;-87
2022/11/23 01:02:23;;;;;;;11.40;9.70;;;;;;;17.12;39.83;99600.96;106625;1287;68091;-90
2022/11/23 01:04:49;;;;;;;10.90;9.70;;;;;;;17.12;39.77;99599.27;106748;1276;67512;-89
2022/11/23 01:07:14;;;;;;;12.40;9.70;;;;;;;17.12;39.84;99597.04;106683;1283;67295;-90
2022/11/23 01:09:40;;;;;;;11.70;10.00;;;;;;;17.12;39.87;99593.95;106740;1283;66880;-89
2022/11/23 01:12:05;;;;;;;10.80;9.30;;;;;;;17.12;39.81;99596.75;106860;1280;67461;-89
2022/11/23 01:14:31;;;;;;;11.30;9.50;;;;;;;17.11;39.92;99592.06;106770;1291;74404;-90
2022/11/23 01:16:56;;;;;;;11.50;9.50;;;;;;;17.11;39.85;99592.08;106753;1283;67352;-90
2022/11/23 01:19:22;;;;;;;11.40;9.80;;;;;;;17.11;39.86;99596.27;106747;1290;66850;-89
2022/11/23 01:21:47;;;;;;;11.10;9.60;;;;;;;17.11;39.79;99588.30;106666;1287;66872;-93
2022/11/23 01:24:15;;;;;;;10.60;8.90;;;;;;;17.11;39.84;99575.84;106829;1280;67429;-89
2022/11/23 01:26:41;;;;;;;14.00;9.70;;;;;;;17.11;39.91;99570.36;106750;1290;82003;-89
2022/11/23 01:29:07;;;;;;;10.90;9.70;;;;;;;17.11;39.91;99567.97;106709;1283;67554;-90
2022/11/23 01:31:32;;;;;;;12.60;9.90;;;;;;;17.11;39.90;99569.09;106696;1283;67570;-90
2022/11/23 01:33:59;;;;;;;11.80;9.70;;;;;;;17.11;39.91;99560.95;106750;1283;67593;-90
2022/11/23 01:36:26;;;;;;;11.10;9.50;;;;;;;17.10;39.89;99551.25;106783;1283;67888;-90
2022/11/23 01:38:52;;;;;;;12.40;9.60;;;;;;;17.10;39.91;99546.92;106763;1287;67224;-90
2022/11/23 01:41:19;;;;;;;10.60;9.30;;;;;;;17.10;39.90;99541.34;106724;1283;67296;-89
2022/11/23 01:43:44;;;;;;;11.10;9.10;;;;;;;17.10;39.93;99535.89;106681;1280;66876;-87
2022/11/23 01:46:10;;;;;;;10.10;8.90;;;;;;;17.10;39.94;99531.32;106785;1287;66810;-90
2022/11/23 01:48:52;;;;;;;10.20;8.70;;;;;;;17.10;39.97;99528.54;106801;1289;67527;-93
2022/11/23 01:51:19;;;;;;;11.80;9.30;;;;;;;17.09;39.92;99528.03;106599;1284;72565;-90
2022/11/23 01:53:46;;;;;;;11.50;9.30;;;;;;;17.09;39.88;99528.17;106663;1290;67467;-90
2022/11/23 01:56:16;;;;;;;11.00;9.00;;;;;;;17.09;39.99;99528.59;106680;1290;67519;-90
2022/11/23 01:58:43;;;;;;;11.30;9.30;;;;;;;17.09;39.98;99521.88;106655;1289;74085;-90
2022/11/23 02:01:09;;;;;;;11.80;9.00;;;;;;;17.08;40.02;99516.49;106664;1288;82815;-90
2022/11/23 02:03:36;;;;;;;10.80;9.10;;;;;;;17.09;40.04;99517.91;106670;1290;67604;-92
2022/11/23 02:06:04;;;;;;;12.30;9.40;;;;;;;17.08;40.00;99514.55;106655;1287;66950;-90
2022/11/23 02:08:29;;;;;;;10.90;8.90;;;;;;;17.08;39.97;99511.05;106706;1287;67441;-89
2022/11/23 02:10:56;;;;;;;10.00;8.50;;;;;;;17.08;40.00;99513.98;106665;1288;67514;-89
2022/11/23 02:13:21;;;;;;;11.10;9.00;;;;;;;17.08;40.04;99508.39;106713;1287;67020;-90
2022/11/23 02:15:47;;;;;;;9.90;8.10;;;;;;;17.08;40.06;99510.98;106741;1287;66817;-90
2022/11/23 02:18:14;;;;;;;12.00;8.60;;;;;;;17.08;39.99;99513.08;106725;1285;67484;-89
2022/11/23 02:20:40;;;;;;;12.20;8.90;;;;;;;17.09;40.03;99511.50;106652;1290;67464;-90
2022/11/23 02:23:41;;;;;;;10.40;8.60;;;;;;;17.08;40.05;99515.10;106653;1290;66847;-90
2022/11/23 02:26:18;;;;;;;10.60;8.80;;;;;;;17.08;40.04;99518.11;106413;1291;83040;-89
2022/11/23 02:28:57;;;;;;;11.10;9.00;;;;;;;17.07;40.08;99517.20;106706;1284;72510;-89
2022/11/23 02:31:22;;;;;;;9.70;8.40;;;;;;;17.07;40.11;99515.52;106594;1289;67500;-89
2022/11/23 02:33:48;;;;;;;10.80;8.80;;;;;;;17.07;40.08;99513.59;106672;1283;67488;-90
2022/11/23 02:36:28;;;;;;;10.60;9.00;;;;;;;17.08;40.10;99510.44;106664;1283;67487;-90
2022/11/23 02:38:54;;;;;;;11.80;9.10;;;;;;;17.08;40.11;99504.39;106680;1289;82724;-90
2022/11/23 02:41:20;;;;;;;11.10;9.10;;;;;;;17.07;40.13;99500.98;106598;1284;67453;-89
2022/11/23 02:43:47;;;;;;;11.90;9.40;;;;;;;17.07;40.19;99494.27;106592;1283;67575;-89
2022/11/23 02:46:13;;;;;;;10.50;8.20;;;;;;;17.08;40.07;99496.41;106708;1283;67482;-90
2022/11/23 02:48:38;;;;;;;10.60;8.40;;;;;;;17.07;40.19;99494.73;106684;1277;66691;-90
2022/11/23 02:51:04;;;;;;;9.70;8.40;;;;;;;17.07;40.16;99498.35;106651;1284;67660;-89
2022/11/23 02:53:29;;;;;;;10.30;8.60;;;;;;;17.08;40.18;99500.79;106666;1283;67534;-89
2022/11/23 02:55:54;;;;;;;10.10;8.50;;;;;;;17.07;40.16;99498.48;106536;1283;67328;-89
2022/11/23 02:58:20;;;;;;;10.50;9.10;;;;;;;17.07;40.19;99498.90;106494;1289;67306;-90
2022/11/23 03:00:45;;;;;;;10.30;8.70;;;;;;;17.07;40.12;99498.85;106554;1289;66913;-90
2022/11/23 03:03:11;;;;;;;11.30;8.80;;;;;;;17.07;40.20;99497.23;106477;1284;67852;-89
2022/11/23 03:05:36;;;;;;;11.10;9.00;;;;;;;17.07;40.24;99496.30;106507;1290;67517;-90
2022/11/23 03:08:02;;;;;;;11.70;9.10;;;;;;;17.07;40.20;99489.09;106482;1291;66849;-89
2022/11/23 03:10:28;;;;;;;10.90;8.40;;;;;;;17.07;40.22;99485.13;106520;1286;67367;-90
2022/11/23 03:12:55;;;;;;;10.80;9.00;;;;;;;17.07;40.18;99484.16;106573;1283;67457;-90
2022/11/23 03:15:21;;;;;;;10.40;8.90;;;;;;;17.07;40.26;99479.67;106577;1286;67462;-92
2022/11/23 03:17:46;;;;;;;10.00;8.70;;;;;;;17.07;40.24;99476.02;106494;1283;67681;-89
2022/11/23 03:20:12;;;;;;;10.90;8.80;;;;;;;17.07;40.32;99469.21;106493;1292;67604;-89
2022/11/23 03:22:38;;;;;;;10.40;8.20;;;;;;;17.06;40.29;99468.45;106654;1287;66964;-89
2022/11/23 03:25:04;;;;;;;11.50;9.00;;;;;;;17.07;40.27;99463.16;106478;1286;67449;-90
2022/11/23 03:27:32;;;;;;;10.60;8.80;;;;;;;17.06;40.29;99461.34;106492;1274;66833;-90
2022/11/23 03:29:58;;;;;;;9.80;8.50;;;;;;;17.07;40.27;99461.09;106506;1286;74623;-89
2022/11/23 03:32:25;;;;;;;9.40;8.10;;;;;;;17.06;40.31;99463.57;106783;1284;82709;-87
2022/11/23 03:34:50;;;;;;;10.10;8.40;;;;;;;17.06;40.26;99467.17;106784;1283;67590;-88
2022/11/23 03:37:16;;;;;;;9.40;8.00;;;;;;;17.06;40.34;99468.70;106845;1284;67465;-88
2022/11/23 03:39:41;;;;;;;10.00;8.10;;;;;;;17.06;40.34;99471.80;106837;1274;67344;-88
2022/11/23 03:42:07;;;;;;;10.20;8.90;;;;;;;17.06;40.37;99475.11;106886;1280;67490;-87
2022/11/23 03:44:32;;;;;;;14.70;8.80;;;;;;;17.07;40.35;99473.08;106820;1281;66790;-87
2022/11/23 03:46:58;;;;;;;16.00;8.30;;;;;;;17.06;40.44;99471.50;106807;1283;66868;-90
2022/11/23 03:49:23;;;;;;;14.90;9.20;;;;;;;17.07;40.32;99469.17;106807;1283;67544;-90
2022/11/23 03:51:49;;;;;;;11.10;8.90;;;;;;;17.06;40.40;99463.88;106670;1285;66813;-89
2022/11/23 03:54:14;;;;;;;23.70;19.50;;;;;;;17.06;40.38;99462.81;106704;1283;66936;-93
2022/11/23 03:56:40;;;;;;;29.70;23.90;;;;;;;17.07;40.54;99459.36;106746;1290;67581;-89
2022/11/23 03:59:05;;;;;;;29.70;23.50;;;;;;;17.11;40.71;99458.48;106812;1283;67311;-90
2022/11/23 04:01:31;;;;;;;17.90;13.40;;;;;;;17.13;40.89;99459.45;106867;1286;68346;-90
2022/11/23 04:03:56;;;;;;;15.60;13.40;;;;;;;17.15;41.07;99456.49;106793;1283;68393;-90
2022/11/23 04:06:26;;;;;;;27.10;12.30;;;;;;;17.17;41.32;99452.27;106623;1290;68006;-84
2022/11/23 04:08:51;;;;;;;28.90;11.80;;;;;;;17.17;41.42;99447.66;106757;1280;66774;-89
2022/11/23 04:11:17;;;;;;;18.40;10.80;;;;;;;17.16;41.39;99444.20;106699;1283;67388;-91
2022/11/23 04:13:42;;;;;;;25.10;10.80;;;;;;;17.15;41.39;99439.16;106712;1283;67389;-90
2022/11/23 04:16:08;;;;;;;18.70;10.70;;;;;;;17.14;41.49;99435.91;106654;1286;67653;-91
2022/11/23 04:18:33;;;;;;;19.90;10.00;;;;;;;17.14;41.53;99434.04;106613;1284;67773;-89
2022/11/23 04:20:59;;;;;;;18.40;10.20;;;;;;;17.14;41.46;99429.46;106811;1281;67482;-91
2022/11/23 04:23:24;;;;;;;12.10;10.30;;;;;;;17.13;41.44;99425.85;106577;1280;68644;-91
2022/11/23 04:25:50;;;;;;;13.60;10.00;;;;;;;17.12;41.47;99426.11;106601;1288;66772;-91
2022/11/23 04:28:15;;;;;;;13.50;9.80;;;;;;;17.10;41.42;99427.23;106675;1277;68104;-90
2022/11/23 04:30:41;;;;;;;14.00;9.70;;;;;;;17.08;41.53;99425.16;106525;1284;74427;-90
2022/11/23 04:33:06;;;;;;;13.70;8.70;;;;;;;17.06;41.41;99425.26;106799;1285;67361;-90
2022/11/23 04:35:33;;;;;;;20.00;9.10;;;;;;;17.05;41.55;99424.29;106547;1280;67338;-90
2022/11/23 04:37:58;;;;;;;18.60;11.80;;;;;;;17.04;41.57;99419.56;106715;1278;67504;-89
2022/11/23 04:40:24;;;;;;;32.50;21.30;;;;;;;17.04;41.63;99416.92;106732;1287;67538;-89
2022/11/23 04:42:49;;;;;;;42.90;30.10;;;;;;;17.03;41.67;99416.45;106849;1284;67291;-88
2022/11/23 04:45:15;;;;;;;34.80;25.20;;;;;;;17.01;41.65;99415.28;106767;1283;66872;-90
2022/11/23 04:47:40;;;;;;;37.40;22.30;;;;;;;17.00;41.71;99410.91;106758;1278;66806;-91
2022/11/23 04:50:06;;;;;;;29.50;20.60;;;;;;;16.99;41.73;99405.73;106902;1287;66939;-90
2022/11/23 04:52:32;;;;;;;29.10;19.00;;;;;;;16.98;41.77;99409.20;106721;1287;66714;-91
2022/11/23 04:54:57;;;;;;;35.30;18.90;;;;;;;16.97;41.82;99402.89;106839;1289;67371;-91
2022/11/23 04:57:22;;;;;;;29.30;17.80;;;;;;;16.96;41.89;99403.95;106672;1278;67463;-89
2022/11/23 04:59:48;;;;;;;27.50;16.20;;;;;;;16.96;41.88;99403.80;106772;1281;67443;-89
2022/11/23 05:02:14;;;;;;;24.40;15.40;;;;;;;16.96;41.92;99403.10;106809;1283;67410;-89
2022/11/23 05:04:39;;;;;;;27.90;16.40;;;;;;;16.96;41.97;99407.30;106826;1286;66904;-91
2022/11/23 05:07:09;;;;;;;28.70;15.30;;;;;;;16.97;41.91;99403.70;106790;1284;67700;-93
2022/11/23 05:09:43;;;;;;;24.60;13.80;;;;;;;16.97;41.99;99402.29;106856;1280;66684;-93
2022/11/23 05:20:36;;;;;;;23.10;12.00;;;;;;;16.96;42.11;99395.67;106995;1287;66873;-92
2022/11/23 05:25:55;;;;;;;23.60;11.30;;;;;;;16.97;42.17;99393.85;107073;1278;73157;-91
2022/11/23 05:28:29;;;;;;;24.20;10.60;;;;;;;16.99;42.27;99393.89;106647;1290;82856;-93
2022/11/23 05:31:04;;;;;;;19.20;11.20;;;;;;;17.00;42.27;99394.50;106741;1279;73348;-89
2022/11/23 05:33:53;;;;;;;22.80;9.70;;;;;;;17.00;42.30;99399.18;106647;1283;67446;-94
2022/11/23 05:36:18;;;;;;;37.90;11.10;;;;;;;16.99;42.34;99396.70;106810;1281;66774;-90
2022/11/23 05:38:44;;;;;;;30.90;10.80;;;;;;;16.99;42.41;99397.20;106600;1288;67513;-90
2022/11/23 05:41:09;;;;;;;32.80;11.00;;;;;;;16.98;42.39;99394.50;106654;1281;66959;-90
2022/11/23 05:43:35;;;;;;;42.40;10.70;;;;;;;16.98;42.42;99397.41;106775;1283;67250;-90
2022/11/23 05:46:01;;;;;;;34.40;11.10;;;;;;;16.97;42.45;99392.73;106909;1280;67228;-90
2022/11/23 05:48:26;;;;;;;40.40;10.50;;;;;;;16.98;42.49;99393.59;106846;1281;74403;-91
2022/11/23 09:29:58;;;;;;;24.50;14.20;;;;;;;17.25;47.86;99318.47;106059;1283;553421;31
2022/11/23 09:38:16;;;;;;;16.90;11.10;;;;;;;17.31;47.88;99293.49;105972;1277;555949;-91
2022/11/23 09:40:44;;;;;;;22.40;12.30;;;;;;;17.29;47.87;99284.29;107101;1286;67014;-93
2022/11/23 10:49:29;;;;;;;19.40;11.20;;;;;;;17.64;49.16;99227.37;106951;1281;66800;-92
2022/11/23 10:58:33;;;;;;;41.90;13.90;;;;;;;17.64;49.15;99230.98;107145;1271;72636;-91
